createdAt,value
2023-05-23T00:01:43.176Z,13.78
2023-05-23T00:04:10.232Z,13.76
2023-05-23T00:06:38.789Z,13.74
2023-05-23T00:09:05.611Z,13.72
2023-05-23T00:11:32.205Z,13.69
2023-05-23T00:14:01.088Z,13.64
2023-05-23T00:16:27.739Z,13.61
2023-05-23T00:18:57.513Z,13.57
2023-05-23T00:21:24.387Z,13.55
2023-05-23T00:23:50.955Z,13.51
2023-05-23T00:26:17.534Z,13.41
2023-05-23T00:28:44.028Z,13.34
2023-05-23T00:31:10.570Z,13.28
2023-05-23T00:33:37.144Z,13.22
2023-05-23T00:36:03.784Z,13.15
2023-05-23T00:38:30.285Z,13.08
2023-05-23T00:40:56.798Z,13.06
2023-05-23T00:43:23.312Z,13.06
2023-05-23T00:45:49.899Z,13.06
2023-05-23T00:48:16.629Z,13.08
2023-05-23T00:50:43.182Z,13.10
2023-05-23T00:53:09.736Z,13.11
2023-05-23T00:55:36.497Z,13.11
2023-05-23T00:58:03.031Z,13.06
2023-05-23T01:00:30.261Z,12.97
2023-05-23T01:02:57.076Z,12.93
2023-05-23T01:05:25.026Z,12.91
2023-05-23T01:07:51.728Z,12.90
2023-05-23T01:10:22.730Z,12.89
2023-05-23T01:12:58.197Z,12.89
2023-05-23T01:15:52.306Z,12.89
2023-05-23T01:18:24.794Z,12.89
2023-05-23T01:20:54.517Z,12.88
2023-05-23T01:23:41.961Z,12.84
2023-05-23T01:26:45.687Z,12.83
2023-05-23T01:29:14.742Z,12.81
2023-05-23T01:31:43.724Z,12.83
2023-05-23T01:34:10.300Z,12.80
2023-05-23T01:36:40.793Z,12.81
2023-05-23T01:39:07.323Z,12.81
2023-05-23T01:41:33.846Z,12.84
2023-05-23T01:44:00.556Z,12.86
2023-05-23T01:46:28.021Z,12.89
2023-05-23T01:48:55.046Z,12.90
2023-05-23T01:51:22.383Z,12.89
2023-05-23T01:53:50.107Z,12.88
2023-05-23T01:56:16.646Z,12.91
2023-05-23T01:58:43.197Z,12.91
2023-05-23T02:01:10.295Z,12.89
2023-05-23T02:03:36.985Z,12.90
2023-05-23T02:06:03.627Z,12.89
2023-05-23T02:08:30.138Z,12.89
2023-05-23T02:10:56.710Z,12.91
2023-05-23T02:13:23.327Z,12.93
2023-05-23T02:15:49.909Z,12.98
2023-05-23T02:18:16.442Z,13.02
2023-05-23T02:20:43.023Z,13.03
2023-05-23T02:23:09.701Z,13.00
2023-05-23T02:25:36.240Z,12.96
2023-05-23T02:28:02.842Z,12.94
2023-05-23T02:30:29.429Z,12.91
2023-05-23T02:32:57.554Z,12.92
2023-05-23T02:35:24.098Z,12.90
2023-05-23T02:37:50.607Z,12.92
2023-05-23T02:40:17.189Z,12.94
2023-05-23T02:42:43.711Z,12.97
2023-05-23T02:45:10.640Z,12.98
2023-05-23T02:47:37.214Z,12.97
2023-05-23T02:50:03.859Z,12.97
2023-05-23T02:52:30.430Z,12.97
2023-05-23T02:54:56.983Z,13.00
2023-05-23T02:57:23.481Z,12.98
2023-05-23T02:59:50.051Z,12.96
2023-05-23T03:02:16.698Z,12.96
2023-05-23T03:04:43.338Z,12.97
2023-05-23T03:07:20.388Z,12.99
2023-05-23T03:09:53.873Z,12.96
2023-05-23T03:12:20.856Z,12.98
2023-05-23T03:14:47.459Z,12.95
2023-05-23T03:17:13.992Z,12.97
2023-05-23T03:19:40.583Z,12.98
2023-05-23T03:22:07.184Z,12.96
2023-05-23T03:24:33.681Z,12.89
2023-05-23T03:27:01.453Z,12.84
2023-05-23T03:29:27.942Z,12.79
2023-05-23T03:31:54.511Z,12.72
2023-05-23T03:34:21.037Z,12.63
2023-05-23T03:36:47.516Z,12.58
2023-05-23T03:39:14.049Z,12.55
2023-05-23T03:41:40.620Z,12.48
2023-05-23T03:44:07.963Z,12.35
2023-05-23T03:46:34.477Z,12.30
2023-05-23T03:49:01.059Z,12.24
2023-05-23T03:51:28.166Z,12.19
2023-05-23T03:53:54.651Z,12.16
2023-05-23T03:56:21.355Z,12.16
2023-05-23T03:58:48.190Z,12.20
2023-05-23T04:01:14.729Z,12.25
2023-05-23T04:03:41.374Z,12.29
2023-05-23T04:06:07.922Z,12.34
2023-05-23T04:08:35.341Z,12.38
2023-05-23T04:11:02.010Z,12.43
2023-05-23T04:13:28.958Z,12.43
2023-05-23T04:15:59.495Z,12.46
2023-05-23T04:18:26.108Z,12.53
2023-05-23T04:20:52.608Z,12.54
2023-05-23T04:23:19.110Z,12.60
2023-05-23T04:25:45.664Z,12.68
2023-05-23T04:28:12.505Z,12.75
2023-05-23T04:30:39.086Z,12.77
2023-05-23T04:33:06.293Z,12.85
2023-05-23T04:35:34.300Z,12.88
2023-05-23T04:38:01.922Z,12.90
2023-05-23T04:40:29.108Z,12.93
2023-05-23T04:42:56.804Z,13.01
2023-05-23T04:45:23.530Z,13.08
2023-05-23T04:47:50.121Z,13.12
2023-05-23T04:50:16.728Z,13.17
2023-05-23T04:52:43.236Z,13.28
2023-05-23T04:55:09.943Z,13.40
2023-05-23T04:57:37.262Z,13.47
2023-05-23T05:00:10.685Z,13.58
2023-05-23T05:02:38.258Z,13.68
2023-05-23T05:05:05.153Z,13.77
2023-05-23T05:07:31.655Z,13.92
2023-05-23T05:10:00.917Z,14.05
2023-05-23T05:12:27.860Z,14.15
2023-05-23T05:14:54.382Z,14.26
2023-05-23T05:17:20.899Z,14.31
2023-05-23T05:19:47.448Z,14.35
2023-05-23T05:22:15.132Z,14.39
2023-05-23T05:24:41.690Z,14.47
2023-05-23T05:27:09.541Z,14.56
2023-05-23T05:29:36.449Z,14.63
2023-05-23T05:32:03.395Z,14.74
2023-05-23T05:34:29.992Z,14.84
2023-05-23T05:36:56.881Z,14.90
2023-05-23T05:39:24.677Z,14.94
2023-05-23T05:41:51.196Z,14.94
2023-05-23T05:44:17.929Z,15.03
2023-05-23T05:46:44.514Z,15.16
2023-05-23T05:49:12.524Z,15.25
2023-05-23T05:51:39.276Z,15.25
2023-05-23T05:54:05.857Z,15.23
2023-05-23T05:56:32.738Z,15.25
2023-05-23T05:58:59.258Z,15.33
2023-05-23T06:01:26.792Z,15.33
2023-05-23T06:03:53.609Z,15.37
2023-05-23T06:06:20.290Z,15.50
2023-05-23T06:08:46.892Z,15.50
2023-05-23T06:11:13.499Z,15.44
2023-05-23T06:13:40.012Z,15.44
2023-05-23T06:16:07.189Z,15.43
2023-05-23T06:18:33.789Z,15.47
2023-05-23T06:21:00.619Z,15.56
2023-05-23T06:23:27.121Z,15.69
2023-05-23T06:25:53.751Z,15.93
2023-05-23T06:28:20.318Z,16.19
2023-05-23T06:30:46.818Z,16.40
2023-05-23T06:33:13.372Z,16.39
2023-05-23T06:35:39.929Z,16.52
2023-05-23T06:38:06.468Z,16.70
2023-05-23T06:40:32.991Z,16.91
2023-05-23T06:42:59.497Z,17.14
2023-05-23T06:45:26.091Z,17.32
2023-05-23T06:47:52.835Z,17.53
2023-05-23T06:50:22.417Z,17.76
2023-05-23T06:52:49.894Z,18.06
2023-05-23T06:55:19.248Z,18.29
2023-05-23T06:57:46.817Z,18.45
2023-05-23T07:00:13.955Z,18.57
2023-05-23T07:02:40.626Z,18.61
2023-05-23T07:05:07.497Z,18.55
2023-05-23T07:07:34.120Z,18.50
2023-05-23T07:10:00.639Z,18.56
2023-05-23T07:12:27.132Z,18.70
2023-05-23T07:14:53.649Z,18.92
2023-05-23T07:17:20.376Z,19.26
2023-05-23T07:19:47.009Z,19.45
2023-05-23T07:22:13.507Z,19.68
2023-05-23T07:24:40.085Z,19.76
2023-05-23T07:27:06.745Z,19.88
2023-05-23T07:29:33.289Z,19.99
2023-05-23T07:31:59.934Z,20.06
2023-05-23T07:34:26.890Z,20.13
2023-05-23T07:36:53.510Z,20.15
2023-05-23T07:39:22.235Z,20.13
2023-05-23T07:41:49.240Z,20.30
2023-05-23T07:44:16.617Z,20.58
2023-05-23T07:46:43.208Z,20.88
2023-05-23T07:49:09.905Z,21.13
2023-05-23T07:51:36.968Z,21.42
2023-05-23T07:54:03.520Z,21.65
2023-05-23T07:56:30.031Z,21.80
2023-05-23T07:58:56.585Z,21.94
2023-05-23T08:01:24.905Z,22.08
2023-05-23T08:03:51.448Z,22.04
2023-05-23T08:06:18.011Z,22.04
2023-05-23T08:08:44.520Z,22.36
2023-05-23T08:11:11.052Z,22.62
2023-05-23T08:13:37.579Z,22.87
2023-05-23T08:16:04.189Z,23.13
2023-05-23T08:18:31.141Z,23.22
2023-05-23T08:20:57.715Z,23.14
2023-05-23T08:23:24.229Z,22.92
2023-05-23T08:25:51.045Z,22.61
2023-05-23T08:28:17.552Z,22.32
2023-05-23T08:30:44.225Z,22.10
2023-05-23T08:33:10.952Z,22.26
2023-05-23T08:35:37.766Z,22.28
2023-05-23T08:38:07.552Z,22.25
2023-05-23T08:40:34.230Z,22.13
2023-05-23T08:43:00.930Z,22.23
2023-05-23T08:45:29.370Z,22.39
2023-05-23T08:47:56.087Z,22.85
2023-05-23T08:50:23.277Z,23.03
2023-05-23T08:52:59.325Z,23.00
2023-05-23T08:55:29.298Z,23.12
2023-05-23T08:57:56.451Z,22.96
2023-05-23T09:00:23.253Z,22.89
2023-05-23T09:02:49.999Z,22.88
2023-05-23T09:05:17.000Z,22.80
2023-05-23T09:07:47.812Z,22.63
2023-05-23T09:10:14.513Z,22.54
2023-05-23T09:12:41.041Z,22.28
2023-05-23T09:15:09.375Z,22.07
2023-05-23T09:17:39.183Z,21.86
2023-05-23T09:20:15.672Z,21.75
2023-05-23T09:22:46.015Z,21.78
2023-05-23T09:25:12.522Z,21.89
2023-05-23T09:27:39.032Z,21.94
2023-05-23T09:30:09.746Z,22.15
2023-05-23T09:32:36.374Z,22.34
2023-05-23T09:35:06.837Z,22.46
2023-05-23T09:37:34.960Z,22.48
2023-05-23T09:40:02.169Z,22.28
2023-05-23T09:42:33.008Z,22.05
2023-05-23T09:45:01.106Z,21.78
2023-05-23T09:47:29.846Z,21.54
2023-05-23T09:49:56.415Z,21.45
2023-05-23T09:52:23.012Z,21.36
2023-05-23T09:54:49.565Z,21.28
2023-05-23T09:57:18.827Z,21.32
2023-05-23T09:59:54.830Z,21.38
2023-05-23T10:02:47.126Z,21.48
2023-05-23T10:05:27.729Z,21.56
2023-05-23T10:07:58.287Z,21.60
2023-05-23T10:10:24.819Z,21.78
2023-05-23T10:12:51.830Z,21.94
2023-05-23T10:15:18.967Z,22.14
2023-05-23T10:17:52.758Z,22.27
2023-05-23T10:20:20.542Z,22.52
2023-05-23T10:22:47.184Z,22.75
2023-05-23T10:25:14.044Z,23.14
2023-05-23T10:27:40.821Z,23.75
2023-05-23T10:30:08.035Z,24.17
2023-05-23T10:32:34.937Z,24.47
2023-05-23T10:35:22.616Z,24.81
2023-05-23T10:37:53.374Z,25.27
2023-05-23T10:40:23.174Z,25.59
2023-05-23T10:43:03.160Z,25.84
2023-05-23T10:45:29.883Z,25.92
2023-05-23T10:47:56.671Z,26.00
2023-05-23T10:50:33.899Z,25.77
2023-05-23T10:53:02.220Z,25.53
2023-05-23T10:55:35.062Z,25.46
2023-05-23T10:58:12.220Z,25.24
2023-05-23T11:00:39.001Z,25.14
2023-05-23T11:03:06.435Z,24.95
2023-05-23T11:05:33.815Z,24.93
2023-05-23T11:08:11.134Z,24.98
2023-05-23T11:10:59.387Z,25.10
2023-05-23T11:13:26.030Z,25.34
2023-05-23T11:15:52.668Z,25.40
2023-05-23T11:18:27.406Z,25.47
2023-05-23T11:20:54.727Z,25.46
2023-05-23T11:23:21.884Z,25.45
2023-05-23T11:25:52.185Z,25.35
2023-05-23T11:28:18.795Z,25.30
2023-05-23T11:30:48.220Z,25.27
2023-05-23T11:33:16.388Z,25.28
2023-05-23T11:35:47.092Z,25.54
2023-05-23T11:38:16.904Z,25.96
2023-05-23T11:40:45.764Z,26.63
2023-05-23T11:43:16.759Z,27.48
2023-05-23T11:45:43.437Z,28.45
2023-05-23T11:48:11.873Z,29.36
2023-05-23T11:50:54.289Z,30.45
2023-05-23T11:53:22.195Z,31.57
2023-05-23T11:55:57.645Z,32.83
2023-05-23T11:58:29.003Z,34.36
2023-05-23T12:01:09.317Z,35.00
2023-05-23T12:03:46.540Z,34.48
2023-05-23T12:06:16.820Z,33.70
2023-05-23T12:08:43.378Z,33.11
2023-05-23T12:11:10.151Z,33.13
2023-05-23T12:13:36.683Z,33.32
2023-05-23T12:16:04.477Z,34.48
2023-05-23T12:18:32.639Z,35.16
2023-05-23T12:21:03.268Z,34.87
2023-05-23T12:23:31.778Z,34.70
2023-05-23T12:25:59.757Z,35.54
2023-05-23T12:28:45.709Z,35.01
2023-05-23T12:31:19.236Z,33.71
2023-05-23T12:33:47.743Z,33.71
2023-05-23T12:36:15.628Z,34.13
2023-05-23T12:38:45.494Z,34.87
2023-05-23T12:41:22.040Z,37.53
2023-05-23T12:43:52.894Z,38.27
2023-05-23T12:46:23.499Z,36.31
2023-05-23T12:48:50.064Z,35.02
2023-05-23T12:51:16.840Z,33.54
2023-05-23T12:53:43.441Z,32.46
2023-05-23T12:56:09.955Z,31.60
2023-05-23T12:58:36.476Z,30.79
2023-05-23T13:01:03.428Z,31.19
2023-05-23T13:03:33.110Z,31.77
2023-05-23T13:05:59.719Z,33.20
2023-05-23T13:08:29.549Z,36.46
2023-05-23T13:10:56.669Z,38.85
2023-05-23T13:13:23.223Z,40.34
2023-05-23T13:15:51.212Z,41.91
2023-05-23T13:18:18.266Z,43.81
2023-05-23T13:20:44.909Z,43.84
2023-05-23T13:23:11.455Z,45.29
2023-05-23T13:25:38.004Z,46.78
2023-05-23T13:28:04.577Z,47.70
2023-05-23T13:30:31.086Z,48.05
2023-05-23T13:32:57.603Z,48.64
2023-05-23T13:35:24.197Z,49.19
2023-05-23T13:37:50.719Z,49.59
2023-05-23T13:40:18.484Z,50.21
2023-05-23T13:42:45.886Z,50.55
2023-05-23T13:45:12.425Z,51.13
2023-05-23T13:47:38.956Z,51.45
2023-05-23T13:50:06.176Z,51.97
2023-05-23T13:52:32.774Z,52.45
2023-05-23T13:55:01.387Z,52.83
2023-05-23T13:57:28.006Z,52.80
2023-05-23T13:59:54.510Z,52.73
2023-05-23T14:02:22.671Z,52.47
2023-05-23T14:04:50.097Z,52.92
2023-05-23T14:07:17.994Z,53.02
2023-05-23T14:09:44.679Z,53.36
2023-05-23T14:12:11.244Z,53.94
2023-05-23T14:14:37.761Z,54.22
2023-05-23T14:17:04.444Z,54.23
2023-05-23T14:19:31.465Z,54.02
2023-05-23T14:21:58.074Z,53.83
2023-05-23T14:24:24.582Z,53.46
2023-05-23T14:26:51.069Z,51.99
2023-05-23T14:29:17.578Z,49.80
2023-05-23T14:31:44.139Z,47.17
2023-05-23T14:34:11.438Z,45.27
2023-05-23T14:36:38.019Z,43.22
2023-05-23T14:39:05.533Z,41.58
2023-05-23T14:41:32.736Z,40.70
2023-05-23T14:43:59.294Z,40.38
2023-05-23T14:46:25.901Z,40.34
2023-05-23T14:48:52.419Z,40.71
2023-05-23T14:51:34.686Z,41.08
2023-05-23T14:54:05.917Z,41.45
2023-05-23T14:56:32.515Z,41.46
2023-05-23T14:58:59.705Z,41.47
2023-05-23T15:01:26.234Z,41.31
2023-05-23T15:03:52.920Z,41.13
2023-05-23T15:06:19.816Z,40.21
2023-05-23T15:08:47.352Z,38.02
2023-05-23T15:11:13.894Z,35.74
2023-05-23T15:13:40.559Z,34.07
2023-05-23T15:16:07.295Z,32.71
2023-05-23T15:18:40.617Z,31.25
2023-05-23T15:21:08.527Z,30.23
2023-05-23T15:23:35.052Z,29.42
2023-05-23T15:26:01.571Z,28.72
2023-05-23T15:28:28.100Z,28.08
2023-05-23T15:30:54.656Z,27.62
2023-05-23T15:33:21.918Z,27.19
2023-05-23T15:35:48.513Z,26.83
2023-05-23T15:38:16.513Z,26.65
2023-05-23T15:40:46.921Z,26.49
2023-05-23T15:43:13.498Z,26.45
2023-05-23T15:45:40.023Z,27.04
2023-05-23T15:48:06.662Z,29.28
2023-05-23T15:50:33.241Z,31.37
2023-05-23T15:52:59.848Z,32.97
2023-05-23T15:55:26.398Z,34.27
2023-05-23T15:57:52.945Z,34.48
2023-05-23T16:00:19.816Z,33.60
2023-05-23T16:02:46.421Z,32.01
2023-05-23T16:05:13.016Z,30.50
2023-05-23T16:07:39.513Z,29.21
2023-05-23T16:10:06.307Z,29.02
2023-05-23T16:12:32.835Z,28.05
2023-05-23T16:14:59.338Z,27.08
2023-05-23T16:17:25.850Z,26.23
2023-05-23T16:19:52.393Z,25.31
2023-05-23T16:22:18.934Z,24.63
2023-05-23T16:24:45.587Z,24.23
2023-05-23T16:27:12.160Z,23.96
2023-05-23T16:29:38.665Z,23.62
2023-05-23T16:32:05.700Z,23.34
2023-05-23T16:34:32.296Z,23.12
2023-05-23T16:36:58.794Z,22.96
2023-05-23T16:39:25.391Z,22.69
2023-05-23T16:41:51.901Z,22.42
2023-05-23T16:44:18.434Z,22.17
2023-05-23T16:46:45.025Z,21.86
2023-05-23T16:49:11.560Z,21.65
2023-05-23T16:51:38.120Z,21.49
2023-05-23T16:54:04.766Z,21.25
2023-05-23T16:56:31.386Z,21.17
2023-05-23T16:58:57.886Z,21.09
2023-05-23T17:01:24.458Z,20.99
2023-05-23T17:03:51.187Z,20.93
2023-05-23T17:06:17.792Z,20.90
2023-05-23T17:08:44.358Z,20.88
2023-05-23T17:11:10.917Z,20.83
2023-05-23T17:13:37.418Z,20.76
2023-05-23T17:16:04.307Z,20.67
2023-05-23T17:18:30.969Z,20.58
2023-05-23T17:20:57.766Z,20.53
2023-05-23T17:23:24.357Z,20.39
2023-05-23T17:25:50.929Z,20.23
2023-05-23T17:28:17.470Z,20.12
2023-05-23T17:30:44.255Z,19.98
2023-05-23T17:33:11.263Z,19.97
2023-05-23T17:35:37.922Z,19.91
2023-05-23T17:38:04.576Z,19.81
2023-05-23T17:40:31.132Z,19.73
2023-05-23T17:42:57.694Z,19.65
2023-05-23T17:45:24.258Z,19.59
2023-05-23T17:47:50.929Z,19.58
2023-05-23T17:50:17.485Z,19.50
2023-05-23T17:52:44.823Z,19.45
2023-05-23T17:55:11.554Z,19.49
2023-05-23T17:57:38.210Z,19.56
2023-05-23T18:00:06.003Z,19.58
2023-05-23T18:02:32.602Z,19.51
2023-05-23T18:04:59.211Z,19.52
2023-05-23T18:07:25.869Z,19.57
2023-05-23T18:09:52.583Z,19.62
2023-05-23T18:12:19.107Z,19.71
2023-05-23T18:14:45.793Z,19.77
2023-05-23T18:17:12.794Z,19.73
2023-05-23T18:19:39.455Z,19.68
2023-05-23T18:22:06.531Z,19.71
2023-05-23T18:24:33.045Z,19.63
2023-05-23T18:27:00.341Z,19.61
2023-05-23T18:29:27.102Z,19.54
2023-05-23T18:31:53.625Z,19.55
2023-05-23T18:34:21.245Z,19.47
2023-05-23T18:36:47.839Z,19.41
2023-05-23T18:39:18.750Z,19.27
2023-05-23T18:41:46.216Z,19.18
2023-05-23T18:44:13.456Z,19.10
2023-05-23T18:46:39.991Z,19.02
2023-05-23T18:49:06.581Z,18.88
2023-05-23T18:51:33.866Z,18.74
2023-05-23T18:54:00.367Z,18.55
2023-05-23T18:56:27.009Z,18.35
2023-05-23T18:58:53.803Z,18.13
2023-05-23T19:01:20.349Z,17.94
2023-05-23T19:03:47.099Z,17.64
2023-05-23T19:06:13.782Z,17.39
2023-05-23T19:08:41.665Z,17.17
2023-05-23T19:11:08.698Z,16.91
2023-05-23T19:13:35.273Z,16.72
2023-05-23T19:16:01.998Z,16.54
2023-05-23T19:18:28.643Z,16.37
2023-05-23T19:20:56.430Z,16.18
2023-05-23T19:23:23.075Z,16.01
2023-05-23T19:25:49.588Z,15.90
2023-05-23T19:28:16.248Z,15.81
2023-05-23T19:30:43.767Z,15.77
2023-05-23T19:33:10.793Z,15.73
2023-05-23T19:35:37.362Z,15.70
2023-05-23T19:38:03.946Z,15.66
2023-05-23T19:40:30.450Z,15.61
2023-05-23T19:42:57.014Z,15.53
2023-05-23T19:45:23.552Z,15.40
2023-05-23T19:47:50.065Z,15.31
2023-05-23T19:50:16.674Z,15.22
2023-05-23T19:52:43.267Z,15.15
2023-05-23T19:55:10.070Z,15.09
2023-05-23T19:57:37.173Z,15.02
2023-05-23T20:00:05.609Z,14.93
2023-05-23T20:02:32.144Z,14.85
2023-05-23T20:04:58.693Z,14.86
2023-05-23T20:07:25.496Z,14.79
2023-05-23T20:09:52.123Z,14.71
2023-05-23T20:12:18.662Z,14.66
2023-05-23T20:14:45.942Z,14.55
2023-05-23T20:17:12.466Z,14.45
2023-05-23T20:19:40.103Z,14.39
2023-05-23T20:22:06.736Z,14.31
2023-05-23T20:24:33.302Z,14.28
2023-05-23T20:26:59.816Z,14.29
2023-05-23T20:29:26.414Z,14.29
2023-05-23T20:31:52.970Z,14.28
2023-05-23T20:34:19.642Z,14.32
2023-05-23T20:36:46.138Z,14.36
2023-05-23T20:39:12.928Z,14.36
2023-05-23T20:41:41.967Z,14.34
2023-05-23T20:44:12.436Z,14.33
2023-05-23T20:46:41.530Z,14.32
2023-05-23T20:49:08.255Z,14.26
2023-05-23T20:51:35.257Z,14.24
2023-05-23T20:54:03.214Z,14.22
2023-05-23T20:56:30.953Z,14.22
2023-05-23T20:58:57.623Z,14.22
2023-05-23T21:01:24.337Z,14.14
2023-05-23T21:03:51.134Z,14.06
2023-05-23T21:06:17.656Z,13.96
2023-05-23T21:08:44.239Z,13.85
2023-05-23T21:11:11.113Z,13.76
2023-05-23T21:13:39.756Z,13.64
2023-05-23T21:16:06.687Z,13.53
2023-05-23T21:18:33.184Z,13.49
2023-05-23T21:20:59.809Z,13.45
2023-05-23T21:23:26.783Z,13.40
2023-05-23T21:25:53.766Z,13.36
2023-05-23T21:28:20.548Z,13.31
2023-05-23T21:30:47.392Z,13.21
2023-05-23T21:33:13.978Z,13.16
2023-05-23T21:35:40.743Z,13.11
2023-05-23T21:38:07.418Z,13.15
2023-05-23T21:40:33.942Z,13.14
2023-05-23T21:43:00.487Z,13.18
2023-05-23T21:45:27.051Z,13.19
2023-05-23T21:47:53.660Z,13.18
2023-05-23T21:50:20.344Z,13.17
2023-05-23T21:52:46.876Z,13.18
2023-05-23T21:55:13.402Z,13.20
2023-05-23T21:57:39.911Z,13.15
2023-05-23T22:00:12.165Z,13.15
2023-05-23T22:02:39.404Z,13.19
2023-05-23T22:05:07.009Z,13.16
2023-05-23T22:07:33.571Z,13.16
2023-05-23T22:10:00.162Z,13.14
2023-05-23T22:12:26.881Z,13.11
2023-05-23T22:14:54.738Z,13.11
2023-05-23T22:17:22.534Z,13.11
2023-05-23T22:19:51.939Z,13.07
2023-05-23T22:22:19.088Z,13.00
2023-05-23T22:24:45.776Z,12.96
2023-05-23T22:27:12.343Z,12.90
2023-05-23T22:29:38.927Z,12.89
2023-05-23T22:32:05.700Z,12.88
2023-05-23T22:34:32.242Z,12.90
2023-05-23T22:37:00.196Z,12.89
2023-05-23T22:39:26.982Z,12.90
2023-05-23T22:41:53.692Z,12.87
2023-05-23T22:44:20.237Z,12.81
2023-05-23T22:46:46.779Z,12.79
2023-05-23T22:49:13.435Z,12.81
2023-05-23T22:51:40.080Z,12.78
2023-05-23T22:54:06.684Z,12.74
2023-05-23T22:56:33.230Z,12.72
2023-05-23T22:58:59.810Z,12.70
2023-05-23T23:01:26.384Z,12.71
2023-05-23T23:03:52.922Z,12.73
2023-05-23T23:06:20.997Z,12.73
2023-05-23T23:08:47.636Z,12.75
2023-05-23T23:11:14.151Z,12.76
2023-05-23T23:13:40.701Z,12.77
2023-05-23T23:16:08.633Z,12.75
2023-05-23T23:18:35.355Z,12.74
2023-05-23T23:21:01.887Z,12.74
2023-05-23T23:23:28.452Z,12.75
2023-05-23T23:25:55.014Z,12.77
2023-05-23T23:28:21.579Z,12.76
2023-05-23T23:30:48.145Z,12.74
2023-05-23T23:33:14.950Z,12.73
2023-05-23T23:35:41.675Z,12.74
2023-05-23T23:38:08.182Z,12.72
2023-05-23T23:40:34.786Z,12.71
2023-05-23T23:43:01.595Z,12.70
2023-05-23T23:45:28.132Z,12.70
2023-05-23T23:47:54.753Z,12.67
2023-05-23T23:50:21.589Z,12.70
2023-05-23T23:52:48.257Z,12.72
2023-05-23T23:55:14.775Z,12.75
2023-05-23T23:57:41.415Z,12.78
